createdAt,value
2019-03-19T00:00:53.271Z,79.19
2019-03-19T00:01:53.475Z,79.21
2019-03-19T00:02:54.236Z,79.23
2019-03-19T00:03:53.318Z,79.1
2019-03-19T00:04:53.303Z,79.18
2019-03-19T00:05:53.339Z,79.14
2019-03-19T00:06:53.290Z,79.15
2019-03-19T00:07:53.302Z,79.13
2019-03-19T00:08:53.283Z,79.3
2019-03-19T00:09:53.284Z,79.54
2019-03-19T00:10:53.294Z,79.15
2019-03-19T00:11:53.300Z,79.19
2019-03-19T00:12:53.306Z,79.63
2019-03-19T00:13:53.292Z,79.7
2019-03-19T00:14:53.268Z,79.41
2019-03-19T00:15:53.291Z,79.34
2019-03-19T00:16:54.147Z,80.21
2019-03-19T00:17:53.365Z,79.81
2019-03-19T00:18:53.264Z,79.64
2019-03-19T00:19:53.284Z,79.98
2019-03-19T00:20:53.306Z,79.82
2019-03-19T00:21:53.251Z,79.8
2019-03-19T00:22:53.298Z,80.05
2019-03-19T00:23:53.538Z,79.7
2019-03-19T00:24:53.632Z,79.73
2019-03-19T00:25:53.398Z,79.55
2019-03-19T00:26:53.286Z,79.62
2019-03-19T00:27:53.277Z,79.74
2019-03-19T00:28:53.242Z,79.59
2019-03-19T00:29:53.416Z,79.44
2019-03-19T00:30:53.237Z,79.53
2019-03-19T00:31:53.274Z,79.53
2019-03-19T00:32:53.282Z,79.58
2019-03-19T00:33:53.368Z,79.66
2019-03-19T00:34:53.225Z,79.49
2019-03-19T00:35:53.231Z,79.69
2019-03-19T00:36:53.268Z,79.77
2019-03-19T00:37:53.254Z,79.72
2019-03-19T00:38:53.222Z,79.85
2019-03-19T00:39:53.241Z,79.61
2019-03-19T00:40:53.235Z,79.46
2019-03-19T00:41:53.425Z,79.89
2019-03-19T00:42:53.262Z,80.41
2019-03-19T00:43:53.233Z,80.37
2019-03-19T00:44:53.247Z,80.36
2019-03-19T00:45:53.466Z,79.88
2019-03-19T00:46:53.481Z,79.73
2019-03-19T00:47:53.260Z,79.96
2019-03-19T00:48:53.209Z,80.29
2019-03-19T00:49:53.214Z,79.94
2019-03-19T00:50:53.238Z,80.04
2019-03-19T00:51:54.119Z,80.34
2019-03-19T00:52:53.237Z,80.16
2019-03-19T00:53:53.203Z,80.41
2019-03-19T00:54:53.226Z,79.92
2019-03-19T00:55:53.217Z,80.12
2019-03-19T00:56:53.215Z,79.76
2019-03-19T00:57:53.205Z,79.7
2019-03-19T00:58:53.200Z,80.06
2019-03-19T00:59:53.206Z,80.1
2019-03-19T01:00:53.192Z,79.9
2019-03-19T01:01:53.198Z,80.08
2019-03-19T01:02:53.210Z,79.86
2019-03-19T01:03:53.263Z,80.21
2019-03-19T01:04:53.251Z,80.3
2019-03-19T01:05:53.211Z,80.12
2019-03-19T01:06:53.231Z,80.22
2019-03-19T01:07:53.528Z,80.14
2019-03-19T01:08:53.177Z,80.15
2019-03-19T01:09:53.202Z,80.21
2019-03-19T01:10:53.211Z,79.84
2019-03-19T01:11:53.184Z,80.16
2019-03-19T01:12:53.190Z,79.82
2019-03-19T01:13:53.173Z,79.71
2019-03-19T01:14:53.194Z,79.75
2019-03-19T01:15:53.193Z,79.54
2019-03-19T01:16:53.185Z,79.98
2019-03-19T01:17:53.209Z,79.88
2019-03-19T01:18:53.184Z,79.85
2019-03-19T01:19:53.187Z,79.86
2019-03-19T01:20:53.161Z,80.23
2019-03-19T01:21:53.182Z,80.42
2019-03-19T01:22:53.173Z,80.26
2019-03-19T01:23:53.247Z,80.29
2019-03-19T01:24:53.259Z,80.42
2019-03-19T01:25:56.303Z,80.34
2019-03-19T01:26:53.173Z,79.9
2019-03-19T01:27:53.206Z,79.76
2019-03-19T01:28:53.164Z,79.74
2019-03-19T01:29:53.187Z,80.09
2019-03-19T01:30:53.199Z,79.82
2019-03-19T01:31:53.152Z,79.75
2019-03-19T01:32:53.217Z,79.67
2019-03-19T01:33:53.293Z,79.72
2019-03-19T01:34:53.179Z,80.27
2019-03-19T01:35:53.138Z,80.38
2019-03-19T01:36:53.135Z,80
2019-03-19T01:37:53.206Z,80.16
2019-03-19T01:38:53.150Z,80.05
2019-03-19T01:39:53.137Z,80.19
2019-03-19T01:40:53.157Z,80.27
2019-03-19T01:41:53.138Z,80.56
2019-03-19T01:42:53.138Z,80.52
2019-03-19T01:43:53.143Z,80.68
2019-03-19T01:44:53.149Z,80.74
2019-03-19T01:45:53.124Z,80.41
2019-03-19T01:46:53.164Z,80.3
2019-03-19T01:47:53.118Z,80.22
2019-03-19T01:48:53.158Z,80.27
2019-03-19T01:49:53.137Z,80.15
2019-03-19T01:50:53.392Z,80.63
2019-03-19T01:51:53.112Z,80.44
2019-03-19T01:52:53.112Z,80.35
2019-03-19T01:53:53.127Z,80.4
2019-03-19T01:54:53.123Z,80.66
2019-03-19T01:55:53.130Z,80.64
2019-03-19T01:56:53.118Z,80.65
2019-03-19T01:57:53.131Z,80.36
2019-03-19T01:58:53.130Z,80.65
2019-03-19T01:59:53.124Z,80.5
2019-03-19T02:00:53.166Z,80.63
2019-03-19T02:01:53.123Z,80.36
2019-03-19T02:02:53.126Z,80.72
2019-03-19T02:03:53.110Z,80.55
2019-03-19T02:04:53.137Z,80.61
2019-03-19T02:05:53.219Z,80.7
2019-03-19T02:06:53.101Z,80.65
2019-03-19T02:07:53.160Z,80.77
2019-03-19T02:08:53.166Z,80.74
2019-03-19T02:09:53.088Z,80.85
2019-03-19T02:10:53.103Z,81.04
2019-03-19T02:11:53.104Z,81.19
2019-03-19T02:12:53.443Z,81.07
2019-03-19T02:13:53.103Z,80.91
2019-03-19T02:14:53.085Z,80.78
2019-03-19T02:15:53.098Z,80.97
2019-03-19T02:16:53.080Z,81.11
2019-03-19T02:17:53.105Z,81.22
2019-03-19T02:18:53.084Z,81.17
2019-03-19T02:19:53.094Z,81.18
2019-03-19T02:20:53.063Z,81
2019-03-19T02:21:53.076Z,81.13
2019-03-19T02:22:53.275Z,80.85
2019-03-19T02:23:53.098Z,80.87
2019-03-19T02:24:53.105Z,81.07
2019-03-19T02:25:53.082Z,81.01
2019-03-19T02:26:53.153Z,81.22
2019-03-19T02:27:53.127Z,81.16
2019-03-19T02:28:53.078Z,81.15
2019-03-19T02:29:53.060Z,81.22
2019-03-19T02:30:53.185Z,81.16
2019-03-19T02:31:53.103Z,81.53
2019-03-19T02:32:53.065Z,81.29
2019-03-19T02:33:53.182Z,81.34
2019-03-19T02:34:53.233Z,81.14
2019-03-19T02:35:53.093Z,81.21
2019-03-19T02:36:53.060Z,81.14
2019-03-19T02:37:53.242Z,80.92
2019-03-19T02:38:53.060Z,80.67
2019-03-19T02:39:53.065Z,81.15
2019-03-19T02:40:53.143Z,80.95
2019-03-19T02:41:53.080Z,80.96
2019-03-19T02:42:53.087Z,80.72
2019-03-19T02:43:53.040Z,80.63
2019-03-19T02:44:53.065Z,81.02
2019-03-19T02:45:53.048Z,81.24
2019-03-19T02:46:53.043Z,81.04
2019-03-19T02:47:53.477Z,80.99
2019-03-19T02:48:53.113Z,80.9
2019-03-19T02:49:53.066Z,81.12
2019-03-19T02:50:53.034Z,80.98
2019-03-19T02:51:53.046Z,81.02
2019-03-19T02:52:53.054Z,80.97
2019-03-19T02:53:53.043Z,81.08
2019-03-19T02:54:53.032Z,80.9
2019-03-19T02:55:54.894Z,81.13
2019-03-19T02:56:53.046Z,81.08
2019-03-19T02:57:53.057Z,80.93
2019-03-19T02:58:53.050Z,80.77
2019-03-19T02:59:53.015Z,81.02
2019-03-19T03:00:53.034Z,80.95
2019-03-19T03:01:53.091Z,81.35
2019-03-19T03:02:53.041Z,81.78
2019-03-19T03:03:53.033Z,81.45
2019-03-19T03:04:53.068Z,81.72
2019-03-19T03:05:53.026Z,81.68
2019-03-19T03:06:53.010Z,81.45
2019-03-19T03:07:53.081Z,81.62
2019-03-19T03:08:53.044Z,81.5
2019-03-19T03:09:52.997Z,81.39
2019-03-19T03:10:53.053Z,81.38
2019-03-19T03:11:53.012Z,81.64
2019-03-19T03:12:53.025Z,81.62
2019-03-19T03:13:52.994Z,81.35
2019-03-19T03:14:53.079Z,81.19
2019-03-19T03:15:52.962Z,81.37
2019-03-19T03:16:53.010Z,81.55
2019-03-19T03:17:53.004Z,81.25
2019-03-19T03:18:53.033Z,81.52
2019-03-19T03:19:52.999Z,81.28
2019-03-19T03:20:53.002Z,81.35
2019-03-19T03:21:53.026Z,81.43
2019-03-19T03:22:52.999Z,81.45
2019-03-19T03:23:52.985Z,81.86
2019-03-19T03:24:53.071Z,82.29
2019-03-19T03:25:52.984Z,82.53
2019-03-19T03:26:53.027Z,82.01
2019-03-19T03:27:53.019Z,82.46
2019-03-19T03:28:53.014Z,82.19
2019-03-19T03:29:52.987Z,81.98
2019-03-19T03:30:53.069Z,82.02
2019-03-19T03:31:53.007Z,81.87
2019-03-19T03:32:53.217Z,82.26
2019-03-19T03:33:52.960Z,82.22
2019-03-19T03:34:52.985Z,82.12
2019-03-19T03:35:53.022Z,82.16
2019-03-19T03:36:52.997Z,81.99
2019-03-19T03:37:53.028Z,81.93
2019-03-19T03:38:52.985Z,82.11
2019-03-19T03:39:52.961Z,82.34
2019-03-19T03:40:52.977Z,82.11
2019-03-19T03:41:53.139Z,82.08
2019-03-19T03:42:52.942Z,82.24
2019-03-19T03:43:52.925Z,82.2
2019-03-19T03:44:52.974Z,81.99
2019-03-19T03:45:53.074Z,81.73
2019-03-19T03:46:52.939Z,81.52
2019-03-19T03:47:52.978Z,81.79
2019-03-19T03:48:53.037Z,81.68
2019-03-19T03:49:53.019Z,81.71
2019-03-19T03:50:52.959Z,81.89
2019-03-19T03:51:52.943Z,81.91
2019-03-19T03:52:52.996Z,81.79
2019-03-19T03:53:52.957Z,81.63
2019-03-19T03:54:52.967Z,81.43
2019-03-19T03:55:53.028Z,81.56
2019-03-19T03:57:03.179Z,81.35
2019-03-19T03:57:52.956Z,81.33
2019-03-19T03:59:01.686Z,81.35
2019-03-19T03:59:52.964Z,81.47
2019-03-19T04:00:53.336Z,81.97
2019-03-19T04:01:52.965Z,81.86
2019-03-19T04:02:52.999Z,82.01
2019-03-19T04:03:52.906Z,81.84
2019-03-19T04:04:52.958Z,81.52
2019-03-19T04:05:52.959Z,81.45
2019-03-19T04:06:52.937Z,81.4
2019-03-19T04:07:52.909Z,81.32
2019-03-19T04:08:52.929Z,81.72
2019-03-19T04:09:53.087Z,81.84
2019-03-19T04:10:52.957Z,81.93
2019-03-19T04:11:52.936Z,81.61
2019-03-19T04:12:52.950Z,81.58
2019-03-19T04:13:52.937Z,81.37
2019-03-19T04:14:52.962Z,81.54
2019-03-19T04:15:52.951Z,81.46
2019-03-19T04:16:52.954Z,81.53
2019-03-19T04:17:52.916Z,81.39
2019-03-19T04:18:52.899Z,82
2019-03-19T04:19:52.916Z,82.18
2019-03-19T04:20:52.880Z,82.28
2019-03-19T04:21:52.899Z,82.06
2019-03-19T04:22:53.175Z,81.95
2019-03-19T04:23:52.874Z,82.12
2019-03-19T04:24:52.910Z,82.2
2019-03-19T04:25:52.911Z,82.13
2019-03-19T04:26:52.917Z,82.06
2019-03-19T04:27:52.902Z,82.01
2019-03-19T04:28:52.906Z,81.58
2019-03-19T04:29:52.906Z,81.53
2019-03-19T04:30:52.913Z,81.51
2019-03-19T04:31:52.962Z,81.44
2019-03-19T04:32:52.890Z,81.43
2019-03-19T04:33:52.969Z,81.48
2019-03-19T04:34:52.904Z,81.69
2019-03-19T04:35:52.886Z,81.91
2019-03-19T04:36:52.889Z,82.27
2019-03-19T04:37:52.881Z,81.87
2019-03-19T04:38:53.018Z,81.84
2019-03-19T04:39:52.866Z,81.94
2019-03-19T04:40:52.913Z,82.22
2019-03-19T04:41:52.896Z,81.86
2019-03-19T04:42:53.034Z,82.18
2019-03-19T04:43:53.128Z,81.94
2019-03-19T04:44:53.101Z,82.06
2019-03-19T04:45:52.879Z,81.63
2019-03-19T04:46:52.979Z,81.56
2019-03-19T04:47:52.890Z,81.51
2019-03-19T04:48:52.882Z,81.42
2019-03-19T04:49:52.893Z,81.41
2019-03-19T04:50:53.204Z,81.45
2019-03-19T04:51:52.882Z,81.57
2019-03-19T04:52:52.834Z,81.9
2019-03-19T04:53:52.879Z,81.99
2019-03-19T04:54:52.849Z,81.9
2019-03-19T04:55:52.854Z,82.29
2019-03-19T04:56:52.905Z,82.53
2019-03-19T04:57:52.827Z,82.22
2019-03-19T04:58:52.861Z,82.6
2019-03-19T04:59:52.830Z,82.57
2019-03-19T05:00:52.851Z,82.22
2019-03-19T05:01:52.832Z,82.64
2019-03-19T05:02:52.811Z,82.81
2019-03-19T05:03:52.833Z,83.14
2019-03-19T05:04:52.842Z,83.28
2019-03-19T05:05:53.137Z,83.43
2019-03-19T05:06:52.870Z,83.74
2019-03-19T05:07:52.859Z,83.45
2019-03-19T05:08:52.840Z,83.25
2019-03-19T05:09:52.850Z,83.23
2019-03-19T05:10:52.831Z,83.28
2019-03-19T05:11:52.827Z,83.34
2019-03-19T05:12:52.793Z,83.37
2019-03-19T05:13:52.802Z,83.45
2019-03-19T05:14:52.833Z,83.5
2019-03-19T05:15:52.815Z,83.55
2019-03-19T05:16:52.818Z,83.63
2019-03-19T05:17:52.814Z,83.62
2019-03-19T05:18:52.812Z,83.74
2019-03-19T05:19:52.809Z,83.82
2019-03-19T05:20:52.819Z,84.15
2019-03-19T05:21:52.802Z,84.48
2019-03-19T05:22:52.814Z,84.29
2019-03-19T05:23:52.801Z,84.28
2019-03-19T05:24:52.845Z,83.82
2019-03-19T05:25:53.680Z,84.21
2019-03-19T05:26:52.778Z,83.73
2019-03-19T05:27:52.965Z,83.97
2019-03-19T05:28:52.823Z,83.78
2019-03-19T05:29:52.816Z,83.72
2019-03-19T05:30:52.806Z,84.34
2019-03-19T05:31:52.795Z,84.76
2019-03-19T05:32:52.810Z,84.59
2019-03-19T05:33:52.786Z,84.59
2019-03-19T05:34:52.798Z,85.01
2019-03-19T05:35:52.789Z,85.13
2019-03-19T05:36:52.822Z,85.09
2019-03-19T05:37:52.770Z,85.11
2019-03-19T05:38:53.654Z,84.67
2019-03-19T05:39:52.812Z,84.46
2019-03-19T05:40:52.778Z,84.15
2019-03-19T05:41:52.869Z,84.26
2019-03-19T05:42:52.777Z,84.05
2019-03-19T05:43:52.776Z,83.94
2019-03-19T05:44:52.872Z,84.04
2019-03-19T05:45:52.754Z,83.89
2019-03-19T05:46:52.751Z,83.96
2019-03-19T05:48:52.767Z,83.89
2019-03-19T05:49:52.803Z,83.72
2019-03-19T05:50:52.780Z,83.73
2019-03-19T05:51:52.793Z,83.56
2019-03-19T05:52:52.774Z,83.38
2019-03-19T05:53:52.795Z,83.57
2019-03-19T05:54:52.774Z,83.57
2019-03-19T05:55:52.777Z,83.72
2019-03-19T05:56:52.740Z,83.84
2019-03-19T05:57:52.750Z,83.68
2019-03-19T05:58:52.728Z,83.47
2019-03-19T05:59:52.817Z,83.3
2019-03-19T06:00:52.833Z,83.62
2019-03-19T06:01:52.772Z,83.56
2019-03-19T06:02:53.045Z,83.43
2019-03-19T06:03:52.760Z,83.58
2019-03-19T06:04:52.754Z,83.83
2019-03-19T06:05:52.742Z,83.88
2019-03-19T06:06:52.730Z,83.91
2019-03-19T06:07:52.770Z,83.65
2019-03-19T06:08:52.735Z,83.41
2019-03-19T06:09:52.758Z,83.19
2019-03-19T06:10:54.391Z,83.58
2019-03-19T06:11:53.070Z,83.41
2019-03-19T06:12:52.827Z,83.11
2019-03-19T06:13:52.754Z,82.71
2019-03-19T06:14:52.739Z,83.09
2019-03-19T06:15:52.740Z,83.17
2019-03-19T06:16:52.723Z,82.66
2019-03-19T06:17:52.797Z,83.21
2019-03-19T06:18:52.762Z,82.87
2019-03-19T06:19:52.725Z,82.64
2019-03-19T06:20:52.742Z,82.56
2019-03-19T06:21:52.717Z,82.37
2019-03-19T06:22:52.746Z,82.22
2019-03-19T06:23:52.733Z,82.72
2019-03-19T06:24:52.708Z,82.63
2019-03-19T06:25:52.775Z,83.23
2019-03-19T06:26:52.802Z,82.98
2019-03-19T06:28:01.135Z,83.2
2019-03-19T06:28:52.750Z,82.74
2019-03-19T06:29:52.693Z,83.13
2019-03-19T06:30:52.716Z,82.99
2019-03-19T06:31:52.694Z,83.03
2019-03-19T06:32:53.106Z,83.09
2019-03-19T06:33:52.684Z,82.63
2019-03-19T06:34:52.681Z,82.53
2019-03-19T06:35:52.682Z,83.07
2019-03-19T06:36:52.723Z,83.18
2019-03-19T06:37:52.708Z,83.16
2019-03-19T06:38:52.678Z,83.08
2019-03-19T06:39:52.695Z,83
2019-03-19T06:40:52.708Z,82.83
2019-03-19T06:41:52.668Z,83.04
2019-03-19T06:42:52.697Z,82.8
2019-03-19T06:43:52.683Z,82.78
2019-03-19T06:44:52.673Z,82.81
2019-03-19T06:45:52.696Z,82.37
2019-03-19T06:46:52.686Z,82.5
2019-03-19T06:47:52.677Z,82.1
2019-03-19T06:48:52.680Z,82.12
2019-03-19T06:49:52.677Z,82.06
2019-03-19T06:50:52.712Z,82.02
2019-03-19T06:51:52.747Z,81.84
2019-03-19T06:52:52.696Z,81.77
2019-03-19T06:53:52.692Z,81.78
2019-03-19T06:54:53.340Z,82.01
2019-03-19T06:55:52.666Z,81.95
2019-03-19T06:56:52.675Z,81.8
2019-03-19T06:57:52.660Z,81.88
2019-03-19T06:58:52.660Z,81.93
2019-03-19T06:59:52.658Z,82.44
2019-03-19T07:00:52.671Z,82.27
2019-03-19T07:01:52.685Z,82.65
2019-03-19T07:02:52.707Z,82.67
2019-03-19T07:03:52.697Z,82.42
2019-03-19T07:04:52.659Z,82.66
2019-03-19T07:05:52.634Z,82.63
2019-03-19T07:06:52.640Z,82.22
2019-03-19T07:07:52.717Z,81.97
2019-03-19T07:08:52.682Z,82.03
2019-03-19T07:09:52.646Z,81.98
2019-03-19T07:10:52.643Z,82.24
2019-03-19T07:11:52.655Z,82.28
2019-03-19T07:12:52.647Z,82.25
2019-03-19T07:13:52.669Z,82.22
2019-03-19T07:14:52.671Z,82.25
2019-03-19T07:15:52.691Z,82.18
2019-03-19T07:16:52.638Z,81.82
2019-03-19T07:17:52.638Z,81.9
2019-03-19T07:18:52.622Z,81.6
2019-03-19T07:19:52.616Z,82.48
2019-03-19T07:20:52.619Z,82.4
2019-03-19T07:21:52.624Z,82.42
2019-03-19T07:22:52.623Z,82.05
2019-03-19T07:23:52.617Z,82.4
2019-03-19T07:24:52.618Z,82.31
2019-03-19T07:25:52.638Z,82.14
2019-03-19T07:26:52.622Z,82.38
2019-03-19T07:27:52.599Z,82.62
2019-03-19T07:28:52.652Z,82.38
2019-03-19T07:29:52.622Z,82.8
2019-03-19T07:30:52.610Z,82.81
2019-03-19T07:31:52.618Z,82.79
2019-03-19T07:32:52.605Z,82.77
2019-03-19T07:33:52.732Z,82.42
2019-03-19T07:34:52.596Z,81.97
2019-03-19T07:35:52.606Z,82.14
2019-03-19T07:36:52.594Z,81.88
2019-03-19T07:37:52.848Z,82.04
2019-03-19T07:38:52.428Z,82.03
2019-03-19T07:39:52.615Z,81.78
2019-03-19T07:40:52.621Z,81.76
2019-03-19T07:41:52.694Z,81.82
2019-03-19T07:42:52.589Z,81.67
2019-03-19T07:43:52.606Z,81.91
2019-03-19T07:44:52.608Z,82.04
2019-03-19T07:45:52.663Z,82.25
2019-03-19T07:46:52.617Z,82.38
2019-03-19T07:47:52.616Z,82.55
2019-03-19T07:48:52.730Z,82.48
2019-03-19T07:49:52.600Z,82.55
2019-03-19T07:50:52.588Z,82.2
2019-03-19T07:51:53.788Z,81.88
2019-03-19T07:52:52.599Z,82
2019-03-19T07:53:52.583Z,81.99
2019-03-19T07:54:52.581Z,82.08
2019-03-19T07:55:53.825Z,81.9
2019-03-19T07:56:52.582Z,81.68
2019-03-19T07:57:52.580Z,81.88
2019-03-19T07:58:52.601Z,81.86
2019-03-19T07:59:52.656Z,81.5
2019-03-19T08:00:52.599Z,81.2
2019-03-19T08:01:52.563Z,81.33
2019-03-19T08:02:52.660Z,80.98
2019-03-19T08:03:52.607Z,80.99
2019-03-19T08:04:52.559Z,81.08
2019-03-19T08:05:52.540Z,81.04
2019-03-19T08:06:52.597Z,81.14
2019-03-19T08:07:52.593Z,80.75
2019-03-19T08:08:52.629Z,80.43
2019-03-19T08:09:52.599Z,80.8
2019-03-19T08:10:52.549Z,80.44
2019-03-19T08:11:52.612Z,80.34
2019-03-19T08:12:52.562Z,80.11
2019-03-19T08:13:52.553Z,80.04
2019-03-19T08:14:52.665Z,79.95
2019-03-19T08:15:52.585Z,79.61
2019-03-19T08:16:53.550Z,80.01
2019-03-19T08:17:52.522Z,79.93
2019-03-19T08:18:52.548Z,80
2019-03-19T08:19:52.553Z,79.92
2019-03-19T08:20:52.724Z,79.73
2019-03-19T08:21:52.525Z,79.81
2019-03-19T08:22:52.526Z,79.77
2019-03-19T08:23:52.537Z,79.72
2019-03-19T08:24:52.520Z,79.35
2019-03-19T08:25:52.572Z,79.49
2019-03-19T08:26:52.535Z,79.34
2019-03-19T08:27:52.534Z,79.51
2019-03-19T08:28:55.825Z,79.47
2019-03-19T08:29:52.529Z,79.36
2019-03-19T08:30:52.567Z,79.15
2019-03-19T08:31:52.795Z,78.63
2019-03-19T08:32:52.517Z,78.35
2019-03-19T08:33:52.526Z,78.84
2019-03-19T08:34:52.513Z,78.64
2019-03-19T08:35:52.505Z,78.22
2019-03-19T08:36:52.537Z,78.45
2019-03-19T08:37:52.538Z,78.86
2019-03-19T08:38:52.508Z,78.81
2019-03-19T08:39:52.497Z,78.89
2019-03-19T08:40:52.609Z,78.58
2019-03-19T08:41:52.497Z,78.31
2019-03-19T08:42:53.527Z,77.52
2019-03-19T08:43:52.901Z,77.57
2019-03-19T08:44:52.497Z,77.97
2019-03-19T08:45:52.518Z,77.7
2019-03-19T08:46:52.486Z,77.65
2019-03-19T08:47:52.500Z,77.65
2019-03-19T08:48:52.485Z,77.06
2019-03-19T08:49:52.787Z,77.49
2019-03-19T08:50:52.472Z,77.34
2019-03-19T08:51:52.480Z,77.48
2019-03-19T08:52:55.983Z,77.07
2019-03-19T08:53:52.469Z,76.57
2019-03-19T08:54:52.511Z,76.52
2019-03-19T08:55:52.483Z,76.56
2019-03-19T08:56:52.482Z,76.47
2019-03-19T08:57:52.474Z,76.38
2019-03-19T08:58:52.527Z,76.53
2019-03-19T08:59:52.482Z,76.31
2019-03-19T09:00:52.460Z,75.9
2019-03-19T09:01:52.465Z,75.73
2019-03-19T09:02:52.464Z,75.34
2019-03-19T09:03:52.453Z,75.09
2019-03-19T09:04:52.499Z,75.1
2019-03-19T09:05:52.539Z,74.54
2019-03-19T09:06:52.490Z,74.01
2019-03-19T09:07:52.458Z,73.77
2019-03-19T09:08:52.450Z,74.18
2019-03-19T09:09:52.503Z,74.53
2019-03-19T09:10:52.568Z,73.42
2019-03-19T09:11:52.500Z,73.15
2019-03-19T09:12:52.476Z,72.98
2019-03-19T09:13:52.442Z,73.28
2019-03-19T09:14:52.435Z,71.94
2019-03-19T09:15:52.446Z,71.52
2019-03-19T09:16:52.454Z,71.73
2019-03-19T09:17:52.466Z,72.02
2019-03-19T09:18:52.446Z,71.48
2019-03-19T09:19:52.432Z,71.82
2019-03-19T09:20:54.275Z,71.91
2019-03-19T09:21:52.438Z,71.88
2019-03-19T09:22:52.474Z,70.72
2019-03-19T09:23:52.425Z,70.28
2019-03-19T09:24:52.484Z,69.71
2019-03-19T09:25:52.429Z,70.22
2019-03-19T09:26:52.419Z,69.81
2019-03-19T09:27:52.454Z,70.09
2019-03-19T09:28:52.421Z,70
2019-03-19T09:29:52.415Z,70.9
2019-03-19T09:30:52.427Z,70.57
2019-03-19T09:31:52.476Z,70.39
2019-03-19T09:32:52.561Z,70.68
2019-03-19T09:33:52.407Z,71.68
2019-03-19T09:34:52.421Z,71.54
2019-03-19T09:35:52.442Z,69.8
2019-03-19T09:36:58.016Z,71.01
2019-03-19T09:37:59.425Z,72.36
2019-03-19T09:38:52.406Z,71.46
2019-03-19T09:39:52.426Z,70.06
2019-03-19T09:40:52.451Z,66.43
2019-03-19T09:41:52.444Z,67.93
2019-03-19T09:42:52.458Z,68.47
2019-03-19T09:43:53.796Z,68.9
2019-03-19T09:44:58.923Z,68.55
2019-03-19T09:45:52.404Z,68.64
2019-03-19T09:46:52.434Z,68.13
2019-03-19T09:47:52.456Z,67.68
2019-03-19T09:48:52.461Z,67.69
2019-03-19T09:49:52.401Z,67.26
2019-03-19T09:50:52.399Z,66.71
2019-03-19T09:51:52.382Z,67.34
2019-03-19T09:52:52.388Z,67.57
2019-03-19T09:53:52.576Z,68.44
2019-03-19T09:54:52.706Z,67.55
2019-03-19T09:55:52.397Z,67.48
2019-03-19T09:56:52.380Z,66.74
2019-03-19T09:57:52.462Z,66.26
2019-03-19T09:58:52.440Z,66.14
2019-03-19T09:59:52.380Z,66.09
2019-03-19T10:00:52.385Z,66.15
2019-03-19T10:01:52.425Z,65.9
2019-03-19T10:02:52.359Z,64.87
2019-03-19T10:03:52.405Z,64.9
2019-03-19T10:04:52.421Z,66.37
2019-03-19T10:05:52.369Z,64.73
2019-03-19T10:06:52.379Z,64.62
2019-03-19T10:07:52.382Z,65.37
2019-03-19T10:08:52.399Z,65.36
2019-03-19T10:09:52.376Z,63.95
2019-03-19T10:10:52.781Z,64.67
2019-03-19T10:11:52.379Z,64.47
2019-03-19T10:12:52.371Z,63.83
2019-03-19T10:13:52.607Z,63.76
2019-03-19T10:14:52.355Z,58.89
2019-03-19T10:15:52.464Z,52.82
2019-03-19T10:16:52.390Z,51.87
2019-03-19T10:17:52.364Z,50.81
2019-03-19T10:18:52.444Z,52.37
2019-03-19T10:19:52.356Z,53.72
2019-03-19T10:20:52.352Z,54.42
2019-03-19T10:21:52.357Z,55.03
2019-03-19T10:22:52.409Z,57.19
2019-03-19T10:23:52.381Z,52.13
2019-03-19T10:24:52.334Z,52.76
2019-03-19T10:25:52.335Z,53.82
2019-03-19T10:26:52.330Z,53.01
2019-03-19T10:27:52.334Z,53.55
2019-03-19T10:28:52.331Z,53.92
2019-03-19T10:29:52.335Z,55.4
2019-03-19T10:30:52.316Z,54.85
2019-03-19T10:31:52.341Z,54.09
2019-03-19T10:32:52.529Z,53.93
2019-03-19T10:33:52.331Z,54.53
2019-03-19T10:34:52.391Z,55.07
2019-03-19T10:35:52.352Z,53.99
2019-03-19T10:36:52.347Z,54.68
2019-03-19T10:37:52.402Z,53.61
2019-03-19T10:38:52.349Z,52.66
2019-03-19T10:39:52.323Z,52.75
2019-03-19T10:40:52.317Z,53.76
2019-03-19T10:41:52.335Z,53.27
2019-03-19T10:42:52.298Z,53.1
2019-03-19T10:43:52.309Z,52.8
2019-03-19T10:44:52.300Z,53.01
2019-03-19T10:45:52.355Z,53.3
2019-03-19T10:46:52.330Z,53.04
2019-03-19T10:47:52.315Z,52.78
2019-03-19T10:48:52.296Z,53.32
2019-03-19T10:49:52.308Z,52.98
2019-03-19T10:50:52.363Z,52.29
2019-03-19T10:51:52.310Z,50.76
2019-03-19T10:52:52.317Z,51.15
2019-03-19T10:53:52.357Z,51.86
2019-03-19T10:54:52.314Z,52.39
2019-03-19T10:55:52.310Z,53.21
2019-03-19T10:56:52.299Z,50.99
2019-03-19T10:57:52.358Z,51.55
2019-03-19T10:58:52.543Z,51.54
2019-03-19T10:59:52.619Z,51.76
2019-03-19T11:00:06.545Z,51.97
2019-03-19T11:01:06.279Z,52.16
2019-03-19T11:02:06.258Z,52.06
2019-03-19T11:03:06.269Z,51.35
2019-03-19T11:04:06.364Z,52.32
2019-03-19T11:05:06.247Z,51.19
2019-03-19T11:06:06.265Z,51.08
2019-03-19T11:07:06.260Z,51.23
2019-03-19T11:08:06.327Z,51.32
2019-03-19T11:09:06.264Z,51.62
2019-03-19T11:10:06.260Z,51.44
2019-03-19T11:11:06.254Z,51.3
2019-03-19T11:12:06.239Z,51.98
2019-03-19T11:13:06.272Z,51.66
2019-03-19T11:14:06.248Z,52.67
2019-03-19T11:15:06.246Z,52.22
2019-03-19T11:16:06.254Z,51.72
2019-03-19T11:17:06.248Z,52.46
2019-03-19T11:18:06.237Z,51.31
2019-03-19T11:19:06.229Z,52.05
2019-03-19T11:20:06.285Z,52.44
2019-03-19T11:21:06.360Z,51.89
2019-03-19T11:22:06.314Z,52.54
2019-03-19T11:23:06.226Z,51.29
2019-03-19T11:24:06.250Z,50.89
2019-03-19T11:25:06.214Z,51.01
2019-03-19T11:26:06.222Z,50.53
2019-03-19T11:27:06.213Z,50.49
2019-03-19T11:28:06.239Z,50.36
2019-03-19T11:29:06.231Z,51.05
2019-03-19T11:30:06.912Z,51.19
2019-03-19T11:31:06.235Z,51.79
2019-03-19T11:32:06.209Z,51.67
2019-03-19T11:33:06.235Z,50.96
2019-03-19T11:34:06.260Z,50.41
2019-03-19T11:35:06.229Z,50.61
2019-03-19T11:36:06.234Z,50.44
2019-03-19T11:37:06.227Z,50.12
2019-03-19T11:38:06.242Z,51.24
2019-03-19T11:39:06.198Z,51.31
2019-03-19T11:40:06.286Z,52.11
2019-03-19T11:41:07.585Z,52.43
2019-03-19T11:42:06.590Z,52.14
2019-03-19T11:43:06.326Z,52.62
2019-03-19T11:44:06.203Z,52.86
2019-03-19T11:45:06.242Z,52.94
2019-03-19T11:46:06.205Z,51.53
2019-03-19T11:47:06.179Z,51.33
2019-03-19T11:48:06.226Z,51.94
2019-03-19T11:49:06.193Z,51.55
2019-03-19T11:50:06.201Z,52.67
2019-03-19T11:51:06.255Z,53.04
2019-03-19T11:52:06.183Z,51.63
2019-03-19T11:53:06.242Z,52.01
2019-03-19T11:54:06.220Z,50.64
2019-03-19T11:55:06.211Z,50.97
2019-03-19T11:56:06.203Z,51.1
2019-03-19T11:57:06.179Z,50.72
2019-03-19T11:58:06.181Z,51.51
2019-03-19T11:59:06.175Z,50.74
2019-03-19T12:00:11.923Z,50.32
2019-03-19T12:01:06.175Z,50.88
2019-03-19T12:02:06.189Z,50.45
2019-03-19T12:03:16.806Z,50.93
2019-03-19T12:04:06.337Z,50.39
2019-03-19T12:05:06.189Z,50.1
2019-03-19T12:06:06.158Z,49.8
2019-03-19T12:07:06.289Z,50.92
2019-03-19T12:08:06.226Z,50.61
2019-03-19T12:09:06.175Z,50.74
2019-03-19T12:10:06.266Z,50.35
2019-03-19T12:11:06.194Z,51.17
2019-03-19T12:12:06.185Z,49.99
2019-03-19T12:13:06.168Z,49.76
2019-03-19T12:14:06.176Z,47.67
2019-03-19T12:15:06.259Z,49.34
2019-03-19T12:16:06.217Z,49.35
2019-03-19T12:17:06.172Z,49.1
2019-03-19T12:18:06.210Z,49.51
2019-03-19T12:19:06.141Z,49.05
2019-03-19T12:20:06.276Z,48.79
2019-03-19T12:21:06.143Z,49.31
2019-03-19T12:22:06.148Z,47.46
2019-03-19T12:23:06.179Z,48.11
2019-03-19T12:24:06.161Z,47.83
2019-03-19T12:25:07.400Z,47.96
2019-03-19T12:26:06.254Z,48.85
2019-03-19T12:27:06.151Z,49.48
2019-03-19T12:28:06.147Z,49.68
2019-03-19T12:29:06.230Z,48.92
2019-03-19T12:30:06.233Z,50
2019-03-19T12:31:06.136Z,48.56
2019-03-19T12:32:06.132Z,48.31
2019-03-19T12:33:06.142Z,48.49
2019-03-19T12:34:06.134Z,49.1
2019-03-19T12:35:06.157Z,47.87
2019-03-19T12:36:06.120Z,48.19
2019-03-19T12:37:06.131Z,47.57
2019-03-19T12:38:06.107Z,47.71
2019-03-19T12:39:06.149Z,47.94
2019-03-19T12:40:06.165Z,47.91
2019-03-19T12:41:06.103Z,48.2
2019-03-19T12:42:06.162Z,48.58
2019-03-19T12:43:06.165Z,48.11
2019-03-19T12:44:06.150Z,47.93
2019-03-19T12:45:06.155Z,48.06
2019-03-19T12:46:06.140Z,47.96
2019-03-19T12:47:06.344Z,47.68
2019-03-19T12:48:06.116Z,48.62
2019-03-19T12:49:06.135Z,48.6
2019-03-19T12:50:06.188Z,47.34
2019-03-19T12:51:06.128Z,48.24
2019-03-19T12:52:06.132Z,49.55
2019-03-19T12:53:06.120Z,50.34
2019-03-19T12:54:06.098Z,50.16
2019-03-19T12:55:06.106Z,50.69
2019-03-19T12:56:06.153Z,50.15